Time;durP1;ratioP1;P1;durP2;ratioP2;P2;SDS_P1;SDS_P2;PMS_P1;PMS_P2;Temp;Humidity;BMP_temperature;BMP_pressure;BME280_temperature;BME280_humidity;BME280_pressure;Samples;Min_cycle;Max_cycle;Signal;HPM_P1;HPM_P2
2023/09/14 00:02:01;;;;;;;0.63;0.40;;;15.20;84.00;;;;;;5769569;24;20031;-79
2023/09/14 00:04:30;;;;;;;1.40;0.50;;;15.20;84.00;;;;;;5857821;24;20014;-79
2023/09/14 00:07:03;;;;;;;0.47;0.47;;;15.20;83.90;;;;;;6064077;23;20042;-79
2023/09/14 00:09:29;;;;;;;0.63;0.40;;;15.20;83.90;;;;;;6025754;23;20127;-79
2023/09/14 00:11:55;;;;;;;1.15;0.40;;;15.20;83.90;;;;;;6035651;23;20422;-79
2023/09/14 00:14:21;;;;;;;0.95;0.47;;;15.20;83.80;;;;;;5999853;23;20045;-79
2023/09/14 00:16:49;;;;;;;0.93;0.50;;;15.40;83.80;;;;;;5984463;23;20402;-80
2023/09/14 00:19:15;;;;;;;0.60;0.40;;;15.30;83.80;;;;;;5979205;24;20023;-80
2023/09/14 00:21:42;;;;;;;0.40;0.40;;;15.30;83.70;;;;;;6002610;23;20016;-77
2023/09/14 00:24:08;;;;;;;0.50;0.50;;;15.30;83.70;;;;;;5998113;23;20026;-79
2023/09/14 00:26:33;;;;;;;0.90;0.60;;;15.40;83.70;;;;;;5960675;23;20094;-76
2023/09/14 00:29:01;;;;;;;1.40;0.50;;;15.40;83.70;;;;;;6007098;23;20024;-78
2023/09/14 00:31:38;;;;;;;0.95;0.50;;;15.30;83.70;;;;;;6029744;23;20057;-79
2023/09/14 00:34:04;;;;;;;0.40;0.40;;;15.30;83.60;;;;;;6011029;23;20063;-75
2023/09/14 00:36:32;;;;;;;0.60;0.40;;;15.30;83.60;;;;;;6057044;23;20018;-78
2023/09/14 00:38:58;;;;;;;0.35;0.30;;;15.30;83.60;;;;;;6040945;23;20019;-78
2023/09/14 00:41:24;;;;;;;0.60;0.50;;;15.20;83.60;;;;;;6016654;23;20029;-81
2023/09/14 00:43:49;;;;;;;0.77;0.50;;;15.30;83.60;;;;;;6040314;23;20055;-80
2023/09/14 00:46:15;;;;;;;1.13;0.60;;;15.30;83.60;;;;;;6057968;23;20496;-81
2023/09/14 00:48:41;;;;;;;0.60;0.40;;;15.30;83.60;;;;;;6037059;23;20333;-80
2023/09/14 00:51:07;;;;;;;0.43;0.43;;;15.30;83.60;;;;;;6038231;23;20103;-81
2023/09/14 00:53:34;;;;;;;0.85;0.40;;;15.40;83.60;;;;;;6068927;23;20514;-79
2023/09/14 00:56:00;;;;;;;0.77;0.47;;;15.40;83.60;;;;;;6069779;23;20093;-79
2023/09/14 00:58:27;;;;;;;1.10;0.50;;;15.30;83.60;;;;;;6093243;23;20014;-80
2023/09/14 01:00:57;;;;;;;0.50;0.40;;;15.30;83.60;;;;;;6038660;23;20037;-79
2023/09/14 01:03:24;;;;;;;0.95;0.45;;;15.30;83.70;;;;;;5994067;23;20118;-77
2023/09/14 01:05:52;;;;;;;0.55;0.35;;;15.30;83.70;;;;;;6083779;23;20018;-80
2023/09/14 01:08:18;;;;;;;0.65;0.32;;;15.30;83.80;;;;;;6097180;23;20021;-81
2023/09/14 01:10:44;;;;;;;0.70;0.50;;;15.30;83.80;;;;;;6097615;23;20022;-80
2023/09/14 01:13:22;;;;;;;0.40;0.40;;;15.20;83.80;;;;;;6070727;23;20022;-81
2023/09/14 01:15:54;;;;;;;0.30;0.30;;;15.30;83.90;;;;;;6121732;23;20021;-78
2023/09/14 01:18:29;;;;;;;0.95;0.60;;;15.30;83.90;;;;;;6122214;23;20010;-80
2023/09/14 01:21:25;;;;;;;0.65;0.50;;;15.30;83.90;;;;;;6097837;23;20072;-80
2023/09/14 01:24:11;;;;;;;0.35;0.35;;;15.10;83.90;;;;;;6122663;23;20133;-80
2023/09/14 01:26:37;;;;;;;0.90;0.40;;;15.20;83.90;;;;;;6099121;23;20101;-77
2023/09/14 01:29:04;;;;;;;1.48;0.50;;;15.20;83.90;;;;;;6098004;23;20084;-78
2023/09/14 01:31:31;;;;;;;0.85;0.40;;;15.20;84.00;;;;;;6116993;23;20100;-77
2023/09/14 01:33:57;;;;;;;0.73;0.60;;;15.20;84.00;;;;;;6183587;23;20096;-74
2023/09/14 01:36:34;;;;;;;0.43;0.40;;;15.20;84.00;;;;;;6157060;23;20392;-77
2023/09/14 01:39:04;;;;;;;0.38;0.38;;;15.20;84.00;;;;;;6135170;23;20005;-76
2023/09/14 01:41:31;;;;;;;0.47;0.47;;;15.20;84.60;;;;;;6185654;23;20008;-74
2023/09/14 01:43:57;;;;;;;0.85;0.40;;;15.20;84.00;;;;;;6185585;23;20456;-75
2023/09/14 01:46:24;;;;;;;0.60;0.40;;;15.20;84.10;;;;;;6185568;23;20016;-76
2023/09/14 01:48:50;;;;;;;1.13;0.40;;;15.10;84.10;;;;;;6184717;23;20441;-77
2023/09/14 01:51:16;;;;;;;0.43;0.40;;;15.10;84.10;;;;;;6185763;23;20016;-76
2023/09/14 01:53:41;;;;;;;1.13;0.40;;;15.20;84.10;;;;;;6158073;23;20453;-76
2023/09/14 01:56:07;;;;;;;0.50;0.40;;;15.20;84.20;;;;;;6158384;23;20013;-76
2023/09/14 01:58:33;;;;;;;0.82;0.40;;;15.10;84.10;;;;;;6156814;23;20487;-76
2023/09/14 02:00:58;;;;;;;0.47;0.47;;;15.10;84.10;;;;;;6158932;23;20069;-76
2023/09/14 02:03:24;;;;;;;0.75;0.40;;;15.10;84.80;;;;;;6158674;23;20036;-76
2023/09/14 02:06:01;;;;;;;0.47;0.40;;;15.00;84.10;;;;;;6158630;23;20013;-76
2023/09/14 02:08:27;;;;;;;0.40;0.40;;;15.10;84.30;;;;;;6157813;23;20457;-76
2023/09/14 02:10:53;;;;;;;0.82;0.50;;;15.00;84.30;;;;;;6158437;23;20048;-76
2023/09/14 02:13:19;;;;;;;0.43;0.38;;;15.00;84.30;;;;;;6158520;23;20013;-76
2023/09/14 02:15:44;;;;;;;1.33;0.43;;;15.00;84.30;;;;;;6185071;23;20084;-76
2023/09/14 02:18:10;;;;;;;1.10;0.50;;;14.90;84.30;;;;;;6132853;23;20021;-77
2023/09/14 02:20:36;;;;;;;0.70;0.40;;;14.90;84.40;;;;;;6158627;23;20388;-76
2023/09/14 02:23:02;;;;;;;0.73;0.43;;;14.90;84.50;;;;;;6158760;23;20422;-76
2023/09/14 02:25:28;;;;;;;0.85;0.50;;;14.90;84.50;;;;;;6185183;23;20005;-76
2023/09/14 02:27:53;;;;;;;0.65;0.52;;;14.80;84.60;;;;;;6107613;23;20029;-77
2023/09/14 02:30:19;;;;;;;0.30;0.30;;;14.70;84.70;;;;;;6159132;23;20014;-76
2023/09/14 02:32:45;;;;;;;0.52;0.50;;;14.70;84.70;;;;;;6185462;23;20012;-77
2023/09/14 02:35:10;;;;;;;0.70;0.40;;;14.70;84.80;;;;;;6184863;23;20330;-77
2023/09/14 02:37:36;;;;;;;0.45;0.40;;;14.60;84.90;;;;;;6184679;23;20096;-76
2023/09/14 02:40:06;;;;;;;0.50;0.30;;;14.60;85.00;;;;;;6185138;23;20063;-76
2023/09/14 02:42:36;;;;;;;1.23;0.43;;;14.60;85.10;;;;;;6159189;23;20390;-76
2023/09/14 02:45:02;;;;;;;0.73;0.50;;;14.50;85.20;;;;;;6159054;23;20337;-76
2023/09/14 02:47:28;;;;;;;1.13;0.43;;;14.50;85.20;;;;;;6184700;23;20055;-76
2023/09/14 02:49:54;;;;;;;1.15;0.50;;;14.40;85.20;;;;;;6184554;23;20433;-76
2023/09/14 02:52:20;;;;;;;0.77;0.40;;;14.40;85.30;;;;;;6184790;23;20032;-76
2023/09/14 02:54:45;;;;;;;0.88;0.60;;;14.30;85.40;;;;;;6158575;23;20016;-76
2023/09/14 02:57:11;;;;;;;0.43;0.43;;;14.20;85.40;;;;;;6158517;23;20009;-78
2023/09/14 02:59:37;;;;;;;0.80;0.57;;;14.20;85.50;;;;;;6158159;23;20013;-76
2023/09/14 03:02:03;;;;;;;0.38;0.38;;;14.20;85.60;;;;;;6184713;23;20027;-77
2023/09/14 03:04:29;;;;;;;0.52;0.45;;;14.20;85.60;;;;;;6156736;23;20048;-76
2023/09/14 03:06:55;;;;;;;0.95;0.50;;;14.10;85.60;;;;;;6157447;23;20009;-76
2023/09/14 03:09:21;;;;;;;0.55;0.50;;;14.10;85.70;;;;;;6184644;23;20398;-76
2023/09/14 03:11:47;;;;;;;0.82;0.50;;;14.10;85.70;;;;;;6134066;23;20013;-77
2023/09/14 03:14:13;;;;;;;1.02;0.50;;;14.00;85.80;;;;;;6158261;23;20373;-77
2023/09/14 03:16:38;;;;;;;0.40;0.40;;;14.00;85.80;;;;;;6184238;23;20013;-76
2023/09/14 03:19:04;;;;;;;0.40;0.40;;;14.00;85.80;;;;;;6133559;23;20043;-76
2023/09/14 03:21:30;;;;;;;0.60;0.60;;;13.90;85.80;;;;;;6184458;23;20005;-76
2023/09/14 03:23:56;;;;;;;1.58;0.50;;;13.90;85.80;;;;;;6158228;23;20394;-76
2023/09/14 03:26:25;;;;;;;1.33;0.43;;;13.90;85.90;;;;;;6133619;23;20016;-76
2023/09/14 03:28:51;;;;;;;0.50;0.50;;;13.80;85.80;;;;;;6158764;23;20430;-76
2023/09/14 03:31:17;;;;;;;1.08;0.45;;;13.80;85.90;;;;;;6158408;23;20013;-76
2023/09/14 03:33:45;;;;;;;0.60;0.55;;;13.80;86.00;;;;;;6133633;23;20017;-76
2023/09/14 03:36:11;;;;;;;0.60;0.60;;;13.70;86.00;;;;;;6126452;23;20014;-76
2023/09/14 03:38:37;;;;;;;0.52;0.50;;;13.70;86.00;;;;;;6179301;23;20507;-76
2023/09/14 03:41:03;;;;;;;0.50;0.40;;;13.70;86.10;;;;;;6185320;23;20008;-76
2023/09/14 03:43:29;;;;;;;0.68;0.40;;;13.60;86.10;;;;;;6158477;23;20346;-77
2023/09/14 03:45:56;;;;;;;0.65;0.30;;;13.60;86.10;;;;;;6158247;23;20009;-76
2023/09/14 03:48:22;;;;;;;0.85;0.57;;;13.60;86.20;;;;;;6185124;23;20037;-76
2023/09/14 03:50:48;;;;;;;1.40;0.70;;;13.50;86.20;;;;;;6184922;23;20008;-77
2023/09/14 03:53:14;;;;;;;0.30;0.30;;;13.50;86.20;;;;;;6128830;23;20064;-77
2023/09/14 03:55:41;;;;;;;0.40;0.40;;;13.50;86.30;;;;;;6153601;23;20017;-76
2023/09/14 03:58:07;;;;;;;0.40;0.40;;;13.40;86.30;;;;;;6157990;23;20004;-76
2023/09/14 04:00:33;;;;;;;1.15;0.60;;;13.50;86.30;;;;;;6108595;23;20016;-77
2023/09/14 04:02:59;;;;;;;0.68;0.40;;;13.40;86.30;;;;;;6184476;23;20084;-77
2023/09/14 04:05:24;;;;;;;0.40;0.40;;;13.40;86.30;;;;;;6133659;23;20009;-76
2023/09/14 04:07:51;;;;;;;1.40;0.60;;;13.30;86.30;;;;;;6184996;23;20377;-76
2023/09/14 04:10:16;;;;;;;1.05;0.40;;;13.30;86.40;;;;;;6158273;23;20063;-77
2023/09/14 04:12:43;;;;;;;0.93;0.40;;;13.30;86.50;;;;;;6158150;23;20001;-77
2023/09/14 04:15:09;;;;;;;0.88;0.50;;;13.20;86.50;;;;;;6133117;23;20017;-77
2023/09/14 04:17:36;;;;;;;0.98;0.50;;;13.20;86.50;;;;;;6184686;23;20063;-76
2023/09/14 04:20:10;;;;;;;1.10;0.52;;;13.20;86.50;;;;;;6185360;23;20020;-77
2023/09/14 04:22:36;;;;;;;0.50;0.50;;;13.20;86.50;;;;;;6160551;23;20005;-76
2023/09/14 04:25:02;;;;;;;0.68;0.60;;;13.20;86.50;;;;;;6131976;23;20010;-76
2023/09/14 04:27:28;;;;;;;0.50;0.50;;;13.20;86.50;;;;;;6184676;23;20491;-77
2023/09/14 04:29:54;;;;;;;0.70;0.50;;;13.20;86.60;;;;;;6184925;23;20013;-77
2023/09/14 04:32:19;;;;;;;1.08;0.50;;;13.10;86.50;;;;;;6157915;23;20020;-77
2023/09/14 04:34:45;;;;;;;0.55;0.55;;;13.10;86.60;;;;;;6130249;23;20014;-76
2023/09/14 04:37:11;;;;;;;0.60;0.55;;;13.10;86.60;;;;;;6184659;23;20445;-77
2023/09/14 04:39:36;;;;;;;1.27;0.52;;;13.10;86.60;;;;;;6131836;23;20006;-76
2023/09/14 04:42:02;;;;;;;0.80;0.50;;;13.10;86.70;;;;;;6130726;23;20013;-77
2023/09/14 04:44:28;;;;;;;0.98;0.50;;;13.10;86.70;;;;;;6184424;23;20315;-77
2023/09/14 04:46:54;;;;;;;1.13;0.65;;;13.10;86.80;;;;;;6184406;23;20426;-77
2023/09/14 04:49:19;;;;;;;0.40;0.40;;;13.00;86.70;;;;;;6158062;23;20498;-76
2023/09/14 04:51:47;;;;;;;0.65;0.60;;;13.00;86.80;;;;;;6184655;23;20388;-77
2023/09/14 04:54:13;;;;;;;0.60;0.60;;;13.00;86.80;;;;;;6158221;23;20017;-77
2023/09/14 04:56:38;;;;;;;2.45;0.57;;;13.00;86.80;;;;;;6156115;23;20100;-77
2023/09/14 04:59:04;;;;;;;0.93;0.60;;;13.00;86.80;;;;;;6157997;23;20071;-76
2023/09/14 05:01:30;;;;;;;0.40;0.40;;;13.00;86.80;;;;;;6184198;23;20016;-77
2023/09/14 05:03:56;;;;;;;0.65;0.60;;;13.00;86.80;;;;;;6133564;23;20009;-78
2023/09/14 05:06:22;;;;;;;0.50;0.40;;;12.90;86.80;;;;;;6157915;23;20013;-77
2023/09/14 05:08:47;;;;;;;1.50;0.65;;;12.90;86.80;;;;;;6133128;23;20016;-77
2023/09/14 05:11:13;;;;;;;0.80;0.50;;;12.90;86.80;;;;;;6184818;23;20021;-77
2023/09/14 05:13:38;;;;;;;1.33;0.50;;;13.00;86.90;;;;;;6185534;23;20437;-77
2023/09/14 05:16:04;;;;;;;1.00;0.50;;;13.00;86.80;;;;;;6155962;23;20020;-76
2023/09/14 05:18:30;;;;;;;0.85;0.60;;;12.90;86.70;;;;;;6159327;23;20020;-76
2023/09/14 05:20:56;;;;;;;0.70;0.60;;;12.90;86.70;;;;;;6134718;23;20084;-76
2023/09/14 05:23:21;;;;;;;0.98;0.70;;;13.00;86.80;;;;;;6158911;23;20060;-76
2023/09/14 05:25:47;;;;;;;0.70;0.60;;;13.00;86.80;;;;;;6185705;23;20009;-76
2023/09/14 05:28:14;;;;;;;0.52;0.52;;;12.90;86.70;;;;;;6184834;23;20334;-76
2023/09/14 05:30:40;;;;;;;0.60;0.60;;;12.90;86.80;;;;;;6156998;23;20091;-79
2023/09/14 05:33:07;;;;;;;1.33;0.50;;;12.90;87.50;;;;;;6134212;23;20024;-79
2023/09/14 05:35:33;;;;;;;1.75;0.70;;;12.90;86.80;;;;;;6158207;23;20016;-79
2023/09/14 05:37:58;;;;;;;1.20;0.75;;;12.90;86.80;;;;;;6134415;23;20013;-79
2023/09/14 05:40:24;;;;;;;1.95;0.60;;;13.00;86.80;;;;;;6134197;23;20328;-78
2023/09/14 05:42:50;;;;;;;1.00;0.52;;;13.00;86.80;;;;;;6133864;23;20016;-79
2023/09/14 05:45:16;;;;;;;0.63;0.60;;;13.00;86.80;;;;;;6185507;23;20060;-79
2023/09/14 05:47:42;;;;;;;0.73;0.57;;;13.00;86.70;;;;;;6158906;23;20021;-79
2023/09/14 05:50:08;;;;;;;0.93;0.60;;;13.10;86.70;;;;;;6132085;23;20367;-79
2023/09/14 05:52:35;;;;;;;0.52;0.50;;;13.10;87.30;;;;;;6134152;23;20468;-79
2023/09/14 05:55:03;;;;;;;1.05;0.65;;;13.10;86.60;;;;;;6159165;23;20437;-79
2023/09/14 05:57:30;;;;;;;1.23;0.50;;;13.20;86.60;;;;;;6110646;23;20108;-79
2023/09/14 05:59:56;;;;;;;1.25;0.80;;;13.20;86.50;;;;;;6134485;23;20121;-79
2023/09/14 06:02:22;;;;;;;1.55;0.73;;;13.20;86.50;;;;;;6159047;23;20433;-79
2023/09/14 06:04:47;;;;;;;0.50;0.50;;;13.20;86.50;;;;;;6159377;23;20481;-79
2023/09/14 06:07:13;;;;;;;1.33;0.63;;;13.30;86.50;;;;;;6109990;23;20319;-79
2023/09/14 06:09:39;;;;;;;0.57;0.57;;;13.30;86.40;;;;;;6185713;23;20092;-79
2023/09/14 06:12:05;;;;;;;0.60;0.60;;;13.30;86.40;;;;;;6184969;23;20021;-79
2023/09/14 06:14:33;;;;;;;0.70;0.70;;;13.40;86.40;;;;;;6158453;23;20009;-79
2023/09/14 06:16:59;;;;;;;0.80;0.60;;;13.50;86.40;;;;;;6109662;23;20013;-79
2023/09/14 06:19:24;;;;;;;0.93;0.63;;;13.40;86.40;;;;;;6185323;23;20009;-80
2023/09/14 06:21:50;;;;;;;0.90;0.68;;;13.50;86.40;;;;;;6158587;23;20009;-80
2023/09/14 06:24:17;;;;;;;1.02;0.60;;;13.50;86.30;;;;;;6158362;23;20013;-80
2023/09/14 06:26:44;;;;;;;0.47;0.47;;;13.50;86.30;;;;;;6156325;23;20009;-79
2023/09/14 06:29:13;;;;;;;0.60;0.60;;;13.60;86.30;;;;;;6133586;23;20009;-80
2023/09/14 06:31:40;;;;;;;1.98;0.60;;;13.60;86.30;;;;;;6184988;23;20013;-80
2023/09/14 06:34:13;;;;;;;0.80;0.55;;;13.60;86.30;;;;;;6159200;23;20009;-79
2023/09/14 06:36:39;;;;;;;0.70;0.45;;;13.70;86.40;;;;;;6158611;23;20013;-79
2023/09/14 06:39:05;;;;;;;0.40;0.40;;;13.60;86.30;;;;;;6158620;23;20015;-75
2023/09/14 06:41:30;;;;;;;0.47;0.47;;;13.70;86.30;;;;;;6185277;23;20004;-77
2023/09/14 06:43:56;;;;;;;0.73;0.50;;;13.70;86.30;;;;;;6134104;23;20020;-77
2023/09/14 06:46:22;;;;;;;1.80;0.77;;;13.70;86.30;;;;;;6185190;23;20008;-77
2023/09/14 06:48:48;;;;;;;0.50;0.50;;;13.90;86.40;;;;;;6158863;23;20009;-77
2023/09/14 06:51:14;;;;;;;0.50;0.47;;;13.80;86.20;;;;;;6185553;23;20039;-76
2023/09/14 06:53:39;;;;;;;0.70;0.52;;;13.90;86.30;;;;;;6185147;23;20017;-76
2023/09/14 06:56:10;;;;;;;0.70;0.52;;;13.90;86.20;;;;;;6185899;23;20063;-76
2023/09/14 06:58:43;;;;;;;1.42;0.77;;;14.00;86.30;;;;;;6134019;23;20033;-78
2023/09/14 07:01:09;;;;;;;1.23;0.70;;;14.00;86.20;;;;;;6101891;23;20017;-80
2023/09/14 07:03:35;;;;;;;0.88;0.60;;;14.00;86.20;;;;;;6127682;23;20018;-76
2023/09/14 07:06:02;;;;;;;1.17;0.57;;;14.10;86.20;;;;;;6128117;23;20466;-78
2023/09/14 07:08:27;;;;;;;0.40;0.40;;;14.10;86.20;;;;;;6127784;23;20350;-77
2023/09/14 07:10:54;;;;;;;0.82;0.57;;;14.20;86.30;;;;;;6125264;23;20013;-77
2023/09/14 07:13:21;;;;;;;0.57;0.50;;;14.20;86.20;;;;;;6127657;23;20022;-77
2023/09/14 07:15:47;;;;;;;1.55;0.70;;;14.20;86.20;;;;;;6152504;23;20041;-77
2023/09/14 07:18:29;;;;;;;0.70;0.57;;;14.20;86.10;;;;;;6127565;23;20466;-78
2023/09/14 07:20:57;;;;;;;0.82;0.63;;;14.30;86.10;;;;;;6152562;23;20385;-78
2023/09/14 07:23:23;;;;;;;0.70;0.45;;;14.40;86.10;;;;;;6152677;23;20009;-78
2023/09/14 07:25:49;;;;;;;0.60;0.60;;;14.50;86.00;;;;;;6170695;23;20044;-77
2023/09/14 07:28:17;;;;;;;0.80;0.55;;;14.60;85.90;;;;;;6158482;23;20029;-77
2023/09/14 07:30:43;;;;;;;0.82;0.50;;;14.70;85.80;;;;;;6158347;23;20152;-77
2023/09/14 07:33:11;;;;;;;1.80;0.43;;;14.80;85.60;;;;;;6133971;23;20009;-77
2023/09/14 07:35:36;;;;;;;0.90;0.50;;;14.80;85.50;;;;;;6157667;23;20059;-77
2023/09/14 07:38:09;;;;;;;0.63;0.50;;;14.90;85.40;;;;;;6158715;23;20396;-78
2023/09/14 07:40:37;;;;;;;0.50;0.50;;;14.90;85.50;;;;;;6158277;23;20339;-77
2023/09/14 07:43:02;;;;;;;0.98;0.60;;;14.90;85.30;;;;;;6134274;23;20009;-77
2023/09/14 07:45:30;;;;;;;1.05;0.70;;;14.90;85.30;;;;;;6158677;23;20319;-77
2023/09/14 07:47:59;;;;;;;0.98;0.50;;;15.00;85.30;;;;;;6157246;23;20013;-77
2023/09/14 07:50:42;;;;;;;0.98;0.75;;;15.10;85.30;;;;;;6135028;23;20012;-80
2023/09/14 07:53:09;;;;;;;0.60;0.50;;;15.30;85.90;;;;;;6158403;23;20076;-77
2023/09/14 07:55:41;;;;;;;0.88;0.40;;;15.20;85.20;;;;;;6158739;23;20016;-78
2023/09/14 07:58:07;;;;;;;0.63;0.40;;;15.30;85.20;;;;;;6158134;23;20016;-77
2023/09/14 08:00:34;;;;;;;0.55;0.50;;;15.30;85.10;;;;;;6128997;23;20055;-77
2023/09/14 08:03:00;;;;;;;1.08;0.40;;;15.40;85.10;;;;;;6134392;23;20035;-77
2023/09/14 08:05:26;;;;;;;0.40;0.40;;;15.40;85.10;;;;;;6185096;23;20032;-74
2023/09/14 08:07:52;;;;;;;0.65;0.50;;;15.50;85.00;;;;;;6185147;23;20446;-74
2023/09/14 08:10:18;;;;;;;0.63;0.43;;;15.50;84.90;;;;;;6184764;23;20012;-78
2023/09/14 08:12:44;;;;;;;0.45;0.43;;;15.70;84.90;;;;;;6152492;23;20019;-78
2023/09/14 08:15:11;;;;;;;1.35;0.60;;;15.70;84.80;;;;;;6133649;23;20016;-77
2023/09/14 08:17:36;;;;;;;0.90;0.60;;;15.80;84.60;;;;;;6184514;23;20035;-77
2023/09/14 08:20:03;;;;;;;1.00;0.65;;;15.90;84.60;;;;;;6184652;23;20441;-76
2023/09/14 08:22:29;;;;;;;1.35;0.70;;;15.90;84.40;;;;;;6158388;23;20016;-76
2023/09/14 08:25:00;;;;;;;1.30;0.55;;;16.10;84.40;;;;;;6158476;23;20445;-78
2023/09/14 08:27:27;;;;;;;0.50;0.45;;;16.10;84.30;;;;;;6157576;23;20013;-76
2023/09/14 08:29:53;;;;;;;0.98;0.60;;;16.20;84.20;;;;;;6158815;23;20013;-78
2023/09/14 08:32:18;;;;;;;1.05;0.70;;;16.30;84.10;;;;;;6185169;23;20063;-78
2023/09/14 08:34:46;;;;;;;1.52;0.70;;;16.40;84.10;;;;;;6157804;23;20017;-79
2023/09/14 08:37:12;;;;;;;0.82;0.47;;;16.40;84.00;;;;;;6133194;23;20009;-78
2023/09/14 08:39:38;;;;;;;1.35;0.98;;;16.50;83.90;;;;;;6158243;23;20009;-78
2023/09/14 08:42:04;;;;;;;1.08;0.60;;;16.60;83.70;;;;;;6157992;23;20009;-77
2023/09/14 08:44:34;;;;;;;1.60;0.68;;;16.60;83.70;;;;;;6184427;23;20009;-77
2023/09/14 08:47:01;;;;;;;1.88;0.70;;;16.70;83.60;;;;;;6157793;23;20016;-77
2023/09/14 08:49:30;;;;;;;1.48;0.60;;;16.90;83.60;;;;;;6158776;23;20104;-77
2023/09/14 08:51:58;;;;;;;0.77;0.60;;;17.00;83.30;;;;;;6158997;23;20093;-76
2023/09/14 08:54:25;;;;;;;1.35;0.70;;;17.20;83.20;;;;;;6133564;23;20013;-77
2023/09/14 08:56:51;;;;;;;2.22;0.95;;;17.20;82.90;;;;;;6131691;23;20080;-77
2023/09/14 08:59:19;;;;;;;1.10;0.80;;;17.30;82.90;;;;;;6184118;23;20083;-77
2023/09/14 09:01:48;;;;;;;1.65;0.90;;;17.30;82.80;;;;;;6184175;23;20012;-77
2023/09/14 09:04:14;;;;;;;1.67;0.85;;;17.30;82.70;;;;;;6158850;23;20017;-77
2023/09/14 09:06:42;;;;;;;1.80;1.00;;;17.30;82.70;;;;;;6108944;23;20347;-76
2023/09/14 09:09:15;;;;;;;2.53;0.95;;;17.30;82.80;;;;;;6158016;23;20465;-77
2023/09/14 09:11:41;;;;;;;1.85;0.90;;;17.50;82.80;;;;;;6184881;23;20040;-76
2023/09/14 09:14:07;;;;;;;0.95;0.85;;;17.60;82.50;;;;;;6184143;23;20338;-78
2023/09/14 09:16:32;;;;;;;2.47;0.88;;;17.50;82.50;;;;;;6158286;23;20095;-76
2023/09/14 09:19:03;;;;;;;0.93;0.80;;;17.60;82.50;;;;;;6184625;23;20012;-76
2023/09/14 09:21:30;;;;;;;2.05;0.90;;;17.80;82.40;;;;;;6184305;23;20009;-76
2023/09/14 09:23:57;;;;;;;1.13;0.80;;;17.80;82.40;;;;;;6183910;23;20005;-77
2023/09/14 09:26:24;;;;;;;1.10;0.80;;;17.70;82.20;;;;;;6157785;23;20055;-77
2023/09/14 09:28:50;;;;;;;1.23;0.70;;;17.80;82.30;;;;;;6157716;23;20020;-77
2023/09/14 09:31:16;;;;;;;2.63;1.00;;;17.80;82.40;;;;;;6156553;23;20013;-77
2023/09/14 09:33:47;;;;;;;2.60;1.08;;;17.80;82.20;;;;;;6132854;23;20013;-78
2023/09/14 09:36:15;;;;;;;2.17;0.93;;;17.80;82.40;;;;;;6183976;23;20013;-77
2023/09/14 09:38:41;;;;;;;1.02;0.73;;;17.90;82.40;;;;;;6157859;23;20009;-77
2023/09/14 09:41:10;;;;;;;1.60;1.00;;;18.10;82.30;;;;;;6158021;23;20337;-79
2023/09/14 09:43:36;;;;;;;3.17;1.20;;;18.10;82.00;;;;;;6132765;23;20332;-78
2023/09/14 09:46:02;;;;;;;2.03;1.10;;;18.20;82.00;;;;;;6158173;23;20020;-79
2023/09/14 09:48:52;;;;;;;1.42;0.95;;;18.30;81.70;;;;;;6129321;23;20041;-80
2023/09/14 09:51:22;;;;;;;1.02;0.60;;;18.20;81.40;;;;;;6117367;23;20322;-78
2023/09/14 09:54:07;;;;;;;1.75;0.80;;;18.30;81.50;;;;;;6157708;23;20426;-76
2023/09/14 09:56:35;;;;;;;1.67;0.90;;;18.40;81.40;;;;;;6157531;23;20013;-76
2023/09/14 09:59:03;;;;;;;1.50;0.80;;;18.40;81.30;;;;;;6184684;23;20064;-74
2023/09/14 10:01:29;;;;;;;0.98;0.80;;;18.50;81.30;;;;;;6185435;23;20084;-77
2023/09/14 10:03:56;;;;;;;1.05;0.70;;;18.50;81.30;;;;;;6133879;23;20047;-77
2023/09/14 10:06:22;;;;;;;1.05;0.70;;;18.60;81.30;;;;;;6185399;23;20329;-77
2023/09/14 10:08:57;;;;;;;1.88;0.80;;;18.50;81.30;;;;;;6158873;23;20012;-77
2023/09/14 10:11:24;;;;;;;1.20;0.70;;;18.50;81.30;;;;;;6156450;23;20021;-77
2023/09/14 10:13:51;;;;;;;0.82;0.65;;;18.60;81.30;;;;;;6131668;23;20438;-77
2023/09/14 10:16:23;;;;;;;1.63;0.90;;;18.50;81.30;;;;;;6185068;23;20492;-77
2023/09/14 10:18:53;;;;;;;0.95;0.60;;;18.60;81.40;;;;;;6134834;23;20083;-78
2023/09/14 10:21:20;;;;;;;0.77;0.70;;;18.60;81.30;;;;;;6135666;23;20039;-76
2023/09/14 10:23:46;;;;;;;0.70;0.70;;;18.70;81.30;;;;;;6184957;23;20013;-77
2023/09/14 10:26:16;;;;;;;1.73;0.70;;;18.70;81.40;;;;;;6158650;23;20480;-78
2023/09/14 10:28:43;;;;;;;0.95;0.70;;;18.80;81.40;;;;;;6158523;23;20009;-78
2023/09/14 10:31:13;;;;;;;2.15;0.80;;;18.80;81.40;;;;;;6129391;23;20020;-79
2023/09/14 10:33:43;;;;;;;1.50;0.90;;;18.90;81.20;;;;;;6133889;23;20009;-75
2023/09/14 10:36:10;;;;;;;1.02;0.80;;;18.90;81.00;;;;;;6185579;23;20013;-78
2023/09/14 10:38:42;;;;;;;1.95;0.85;;;18.90;80.80;;;;;;6109831;23;20009;-77
2023/09/14 10:41:08;;;;;;;0.77;0.55;;;18.90;80.90;;;;;;6185104;23;20089;-75
2023/09/14 10:43:34;;;;;;;0.70;0.70;;;18.90;81.00;;;;;;6185068;23;20029;-78
2023/09/14 10:46:01;;;;;;;0.85;0.75;;;18.90;81.10;;;;;;6158746;23;20009;-78
2023/09/14 10:48:29;;;;;;;1.10;0.70;;;18.90;81.10;;;;;;6159112;23;20012;-77
2023/09/14 10:50:58;;;;;;;0.80;0.77;;;18.80;81.00;;;;;;6157157;23;20076;-77
2023/09/14 10:53:26;;;;;;;1.25;0.60;;;18.80;81.00;;;;;;6159030;23;20012;-78
2023/09/14 10:55:58;;;;;;;1.00;0.50;;;18.80;81.10;;;;;;6135005;23;20009;-79
2023/09/14 10:58:23;;;;;;;1.20;0.77;;;18.80;81.10;;;;;;6134313;23;20030;-77
2023/09/14 11:00:57;;;;;;;1.13;0.60;;;18.90;81.00;;;;;;6158550;23;20498;-77
2023/09/14 11:03:26;;;;;;;1.05;0.60;;;18.90;81.00;;;;;;6158911;23;20009;-78
2023/09/14 11:06:42;;;;;;;0.52;0.50;;;18.80;80.80;;;;;;6159142;23;20005;-83
2023/09/14 11:09:15;;;;;;;0.40;0.40;;;18.90;80.90;;;;;;6122332;23;20023;-79
2023/09/14 11:11:43;;;;;;;0.80;0.60;;;19.00;80.90;;;;;;6089268;23;20025;-78
2023/09/14 11:14:13;;;;;;;0.95;0.70;;;19.00;80.70;;;;;;6069709;23;20033;-79
2023/09/14 11:16:46;;;;;;;1.45;0.68;;;19.00;80.70;;;;;;6092965;23;20073;-79
2023/09/14 11:19:48;;;;;;;0.75;0.65;;;19.10;80.80;;;;;;6093953;23;20085;-79
2023/09/14 11:22:15;;;;;;;1.27;0.80;;;19.00;80.80;;;;;;6093765;23;20018;-78
2023/09/14 11:24:41;;;;;;;2.08;0.98;;;19.10;80.60;;;;;;6094207;23;20014;-77
2023/09/14 11:27:17;;;;;;;2.45;0.82;;;19.30;80.10;;;;;;6094177;23;20074;-78
2023/09/14 11:29:44;;;;;;;1.17;0.93;;;19.50;79.60;;;;;;6069585;23;20022;-78
2023/09/14 11:32:17;;;;;;;1.17;0.77;;;19.60;79.10;;;;;;6093837;23;20020;-78
2023/09/14 11:34:45;;;;;;;0.75;0.70;;;19.60;79.00;;;;;;6122007;23;20454;-79
2023/09/14 11:37:17;;;;;;;1.00;0.68;;;19.60;78.90;;;;;;6127736;23;20013;-79
2023/09/14 11:46:51;;;;;;;0.70;0.65;;;19.60;79.10;;;;;;6064706;23;20021;-76
2023/09/14 11:49:20;;;;;;;1.17;0.82;;;19.50;79.20;;;;;;6040984;23;20113;-78
2023/09/14 11:51:47;;;;;;;0.50;0.50;;;19.60;79.30;;;;;;6041247;23;20019;-77
2023/09/14 11:54:13;;;;;;;1.23;0.80;;;19.60;80.00;;;;;;6041734;23;20327;-79
2023/09/14 11:56:39;;;;;;;0.75;0.68;;;19.70;79.10;;;;;;6040930;23;20161;-78
2023/09/14 11:59:05;;;;;;;1.60;0.80;;;19.80;78.90;;;;;;6041044;23;20094;-77
2023/09/14 12:01:34;;;;;;;0.80;0.80;;;19.80;78.80;;;;;;6041300;23;20019;-77
2023/09/14 12:03:59;;;;;;;1.23;0.63;;;19.90;78.80;;;;;;6041123;23;20014;-78
2023/09/14 12:06:27;;;;;;;0.98;0.80;;;19.90;78.70;;;;;;6042452;23;20073;-78
2023/09/14 12:08:53;;;;;;;1.08;0.73;;;20.00;78.80;;;;;;6045589;23;20019;-79
2023/09/14 12:11:22;;;;;;;0.93;0.80;;;19.90;78.70;;;;;;6020105;23;20150;-78
2023/09/14 12:13:55;;;;;;;1.20;0.77;;;20.00;78.90;;;;;;6017343;23;20046;-79
2023/09/14 12:16:31;;;;;;;1.30;0.80;;;19.90;78.90;;;;;;6065482;23;20058;-79
2023/09/14 12:19:00;;;;;;;1.50;0.93;;;19.90;78.90;;;;;;6082033;23;20022;-79
2023/09/14 12:21:25;;;;;;;0.70;0.70;;;19.80;79.00;;;;;;6132084;23;20430;-80
2023/09/14 12:24:02;;;;;;;1.40;0.82;;;19.90;79.00;;;;;;6108298;23;20016;-80
2023/09/14 12:26:40;;;;;;;1.23;0.90;;;19.90;78.90;;;;;;6112526;23;20001;-81
2023/09/14 12:29:31;;;;;;;1.17;0.93;;;20.10;78.90;;;;;;6105377;23;20005;-81
2023/09/14 12:31:57;;;;;;;0.95;0.88;;;19.90;78.90;;;;;;6102287;23;20025;-77
2023/09/14 12:34:22;;;;;;;0.77;0.60;;;20.00;79.00;;;;;;6123210;23;20018;-79
2023/09/14 12:36:48;;;;;;;0.68;0.68;;;19.90;78.90;;;;;;6122708;23;20018;-77
2023/09/14 12:39:15;;;;;;;1.50;0.70;;;19.90;79.00;;;;;;6122665;23;20018;-77
2023/09/14 12:41:44;;;;;;;1.33;0.80;;;19.90;79.10;;;;;;6074402;23;20048;-78
2023/09/14 12:44:12;;;;;;;0.93;0.75;;;20.00;79.20;;;;;;6040053;23;20086;-77
2023/09/14 12:46:38;;;;;;;0.70;0.70;;;19.80;79.10;;;;;;6041255;23;20023;-76
2023/09/14 12:49:04;;;;;;;0.57;0.57;;;19.90;79.10;;;;;;6065263;23;20332;-76
2023/09/14 12:51:31;;;;;;;0.85;0.70;;;19.90;79.10;;;;;;6041918;23;20029;-76
2023/09/14 12:53:57;;;;;;;0.82;0.70;;;19.90;79.10;;;;;;6018174;23;20495;-77
2023/09/14 12:56:24;;;;;;;0.77;0.55;;;20.00;79.20;;;;;;6052885;23;20358;-77
2023/09/14 12:58:51;;;;;;;1.20;0.90;;;19.90;79.10;;;;;;6098554;23;20021;-79